createdAt,value
2022-09-26T00:01:26.130Z,12.42
2022-09-26T00:03:56.785Z,12.39
2022-09-26T00:06:23.764Z,12.34
2022-09-26T00:08:51.366Z,12.31
2022-09-26T00:11:25.564Z,12.30
2022-09-26T00:13:54.502Z,12.28
2022-09-26T00:16:21.490Z,12.23
2022-09-26T00:18:50.262Z,12.22
2022-09-26T00:21:17.562Z,12.26
2022-09-26T00:23:44.790Z,12.19
2022-09-26T00:26:13.394Z,12.07
2022-09-26T00:28:40.953Z,12.25
2022-09-26T00:31:10.552Z,12.23
2022-09-26T00:33:37.564Z,12.23
2022-09-26T00:36:05.127Z,12.11
2022-09-26T00:38:31.751Z,12.25
2022-09-26T00:40:58.656Z,12.28
2022-09-26T00:43:35.755Z,12.27
2022-09-26T00:46:37.717Z,12.29
2022-09-26T00:49:29.241Z,12.23
2022-09-26T00:52:02.217Z,12.22
2022-09-26T00:54:30.805Z,12.10
2022-09-26T00:57:04.128Z,12.09
2022-09-26T00:59:35.809Z,12.00
2022-09-26T01:02:02.731Z,12.05
2022-09-26T01:04:32.666Z,11.87
2022-09-26T01:07:03.187Z,11.95
2022-09-26T01:09:31.015Z,11.82
2022-09-26T01:12:01.456Z,11.71
2022-09-26T01:14:28.339Z,11.76
2022-09-26T01:16:56.071Z,11.77
2022-09-26T01:19:59.540Z,11.80
2022-09-26T01:22:29.649Z,11.75
2022-09-26T01:25:14.318Z,11.70
2022-09-26T01:27:58.707Z,11.65
2022-09-26T01:30:29.228Z,11.69
2022-09-26T01:33:01.906Z,11.71
2022-09-26T01:35:51.345Z,11.71
2022-09-26T01:38:24.489Z,11.68
2022-09-26T01:41:05.285Z,11.58
2022-09-26T01:43:35.712Z,11.64
2022-09-26T01:46:25.142Z,11.40
2022-09-26T01:49:11.689Z,11.27
2022-09-26T01:52:07.863Z,11.15
2022-09-26T01:54:42.730Z,11.26
2022-09-26T01:57:14.612Z,11.05
2022-09-26T01:59:49.939Z,11.23
2022-09-26T02:02:26.183Z,11.17
2022-09-26T02:05:28.686Z,11.20
2022-09-26T02:08:03.416Z,11.25
2022-09-26T02:10:38.431Z,11.32
2022-09-26T02:13:11.582Z,11.47
2022-09-26T02:15:40.397Z,11.46
2022-09-26T02:18:17.383Z,11.56
2022-09-26T02:20:49.314Z,11.47
2022-09-26T02:23:15.951Z,11.32
2022-09-26T02:25:42.547Z,11.12
2022-09-26T02:28:09.146Z,11.18
2022-09-26T02:30:37.059Z,11.16
2022-09-26T02:33:03.846Z,11.15
2022-09-26T02:35:51.530Z,11.20
2022-09-26T02:38:18.273Z,11.28
2022-09-26T02:41:34.333Z,11.32
2022-09-26T02:44:25.718Z,11.00
2022-09-26T02:47:04.539Z,11.11
2022-09-26T02:49:38.147Z,11.19
2022-09-26T02:52:11.985Z,11.26
2022-09-26T02:54:58.143Z,11.25
2022-09-26T02:57:24.862Z,11.20
2022-09-26T03:00:06.882Z,11.13
2022-09-26T03:02:42.371Z,11.20
2022-09-26T03:05:20.974Z,11.27
2022-09-26T03:08:11.566Z,11.31
2022-09-26T03:10:40.840Z,11.24
2022-09-26T03:13:14.262Z,11.24
2022-09-26T03:15:45.240Z,11.20
2022-09-26T03:18:19.769Z,11.23
2022-09-26T03:20:47.145Z,11.26
2022-09-26T03:23:13.630Z,11.26
2022-09-26T03:25:42.845Z,11.27
2022-09-26T03:28:12.308Z,11.35
2022-09-26T03:30:39.866Z,11.33
2022-09-26T03:33:35.491Z,11.33
2022-09-26T03:36:06.867Z,11.33
2022-09-26T03:38:33.431Z,11.35
2022-09-26T03:41:09.722Z,11.26
2022-09-26T03:43:56.744Z,11.27
2022-09-26T03:46:25.938Z,11.20
2022-09-26T03:48:52.567Z,11.23
2022-09-26T03:51:21.023Z,11.13
2022-09-26T03:53:47.684Z,11.11
2022-09-26T03:56:20.358Z,11.20
2022-09-26T03:58:49.132Z,11.26
2022-09-26T04:01:19.317Z,11.27
2022-09-26T04:03:50.508Z,11.29
2022-09-26T04:06:19.859Z,11.26
2022-09-26T04:08:49.438Z,11.20
2022-09-26T04:11:19.410Z,11.19
2022-09-26T04:13:51.762Z,11.11
2022-09-26T04:16:23.200Z,11.14
2022-09-26T04:18:57.288Z,11.16
2022-09-26T04:21:27.308Z,11.13
2022-09-26T04:23:54.697Z,11.10
2022-09-26T04:26:26.024Z,11.09
2022-09-26T04:28:55.763Z,11.09
2022-09-26T04:31:30.628Z,11.09
2022-09-26T04:34:05.355Z,11.06
2022-09-26T04:36:32.681Z,11.14
2022-09-26T04:39:00.678Z,11.10
2022-09-26T04:41:29.400Z,11.07
2022-09-26T04:43:57.901Z,11.03
2022-09-26T04:46:30.644Z,11.05
2022-09-26T04:49:00.694Z,11.08
2022-09-26T04:51:29.923Z,11.09
2022-09-26T04:53:56.657Z,11.13
2022-09-26T04:56:27.682Z,11.05
2022-09-26T04:58:56.578Z,11.06
2022-09-26T05:01:27.146Z,11.01
2022-09-26T05:04:08.342Z,10.95
2022-09-26T05:06:34.893Z,10.92
2022-09-26T05:09:04.220Z,10.82
2022-09-26T05:11:49.435Z,10.85
2022-09-26T05:14:17.259Z,10.79
2022-09-26T05:16:45.012Z,10.81
2022-09-26T05:19:14.689Z,10.83
2022-09-26T05:21:59.743Z,10.72
2022-09-26T05:24:45.317Z,10.84
2022-09-26T05:27:15.251Z,10.92
2022-09-26T05:29:41.815Z,10.93
2022-09-26T05:32:10.617Z,10.95
2022-09-26T05:34:38.408Z,10.92
2022-09-26T05:37:05.918Z,10.92
2022-09-26T05:39:51.542Z,10.90
2022-09-26T05:42:19.265Z,10.93
2022-09-26T05:44:45.775Z,10.92
2022-09-26T05:47:13.249Z,10.92
2022-09-26T05:49:40.167Z,10.95
2022-09-26T05:52:10.118Z,10.95
2022-09-26T05:54:36.932Z,10.92
2022-09-26T05:57:15.479Z,10.82
2022-09-26T05:59:51.218Z,10.83
2022-09-26T06:02:23.871Z,10.87
2022-09-26T06:05:09.870Z,10.88
2022-09-26T06:08:10.877Z,10.84
2022-09-26T06:10:47.705Z,10.92
2022-09-26T06:13:15.297Z,10.89
2022-09-26T06:15:48.040Z,10.75
2022-09-26T06:18:14.625Z,10.93
2022-09-26T06:20:41.688Z,10.96
2022-09-26T06:23:08.583Z,10.98
2022-09-26T06:25:37.672Z,10.99
2022-09-26T06:28:04.281Z,10.97
2022-09-26T06:30:31.136Z,10.98
2022-09-26T06:33:09.373Z,10.96
2022-09-26T06:36:06.685Z,11.00
2022-09-26T06:38:38.326Z,11.12
2022-09-26T06:41:10.817Z,11.13
2022-09-26T06:43:39.734Z,11.22
2022-09-26T06:46:09.523Z,11.27
2022-09-26T06:48:46.647Z,11.42
2022-09-26T06:51:31.885Z,11.56
2022-09-26T06:54:00.480Z,11.65
2022-09-26T06:56:27.619Z,11.65
2022-09-26T06:58:55.650Z,11.66
2022-09-26T07:01:30.741Z,11.66
2022-09-26T07:04:09.705Z,11.70
2022-09-26T07:07:04.516Z,11.69
2022-09-26T07:09:31.827Z,11.74
2022-09-26T07:12:15.939Z,11.80
2022-09-26T07:14:43.620Z,11.77
2022-09-26T07:17:27.632Z,11.89
2022-09-26T07:20:20.545Z,11.90
2022-09-26T07:22:56.146Z,11.94
2022-09-26T07:25:22.822Z,11.92
2022-09-26T07:27:51.994Z,12.01
2022-09-26T07:30:23.377Z,11.98
2022-09-26T07:33:05.910Z,12.03
2022-09-26T07:35:46.248Z,12.06
2022-09-26T07:38:13.185Z,12.05
2022-09-26T07:40:40.735Z,12.03
2022-09-26T07:43:19.786Z,12.10
2022-09-26T07:46:12.072Z,12.09
2022-09-26T07:49:00.976Z,12.17
2022-09-26T07:51:46.206Z,12.18
2022-09-26T07:54:18.006Z,12.24
2022-09-26T07:57:01.498Z,12.26
2022-09-26T07:59:37.747Z,12.31
2022-09-26T08:02:32.861Z,12.36
2022-09-26T08:05:05.150Z,12.37
2022-09-26T08:07:35.322Z,12.36
2022-09-26T08:10:19.188Z,12.39
2022-09-26T08:13:04.596Z,12.46
2022-09-26T08:16:05.610Z,12.49
2022-09-26T08:18:36.677Z,12.52
2022-09-26T08:21:05.748Z,12.55
2022-09-26T08:23:33.391Z,12.52
2022-09-26T08:26:23.869Z,12.50
2022-09-26T08:28:56.433Z,12.66
2022-09-26T08:31:23.221Z,12.71
2022-09-26T08:33:50.006Z,12.71
2022-09-26T08:36:16.917Z,12.78
2022-09-26T08:39:13.054Z,12.87
2022-09-26T08:42:38.643Z,12.86
2022-09-26T08:46:12.733Z,12.87
2022-09-26T08:49:24.827Z,12.92
2022-09-26T08:51:57.675Z,12.96
2022-09-26T08:54:36.111Z,12.98
2022-09-26T08:57:17.062Z,13.08
2022-09-26T08:59:46.872Z,13.13
2022-09-26T09:02:26.820Z,13.13
2022-09-26T09:05:19.932Z,13.20
2022-09-26T09:07:50.282Z,13.18
2022-09-26T09:10:22.677Z,13.16
2022-09-26T09:13:13.209Z,13.18
2022-09-26T09:16:06.986Z,13.10
2022-09-26T09:19:23.746Z,13.13
2022-09-26T09:22:23.548Z,13.15
2022-09-26T09:25:22.937Z,13.30
2022-09-26T09:28:02.691Z,13.48
2022-09-26T09:30:39.081Z,13.67
2022-09-26T09:33:42.438Z,13.87
2022-09-26T09:36:26.814Z,13.98
2022-09-26T09:39:09.695Z,14.11
2022-09-26T09:42:10.339Z,14.16
2022-09-26T09:44:36.930Z,14.08
2022-09-26T09:47:11.507Z,13.99
2022-09-26T09:49:38.225Z,14.04
2022-09-26T09:52:04.714Z,14.09
2022-09-26T09:54:55.602Z,14.03
2022-09-26T09:57:49.493Z,14.22
2022-09-26T10:00:17.732Z,14.32
2022-09-26T10:03:35.120Z,14.47
2022-09-26T10:06:04.737Z,14.63
2022-09-26T10:08:41.623Z,14.71
2022-09-26T10:11:26.378Z,14.80
2022-09-26T10:14:01.194Z,14.85
2022-09-26T10:17:09.563Z,14.96
2022-09-26T10:19:54.474Z,14.94
2022-09-26T10:22:30.443Z,15.09
2022-09-26T10:25:15.910Z,15.10
2022-09-26T10:27:51.625Z,15.18
2022-09-26T10:30:21.209Z,15.17
2022-09-26T10:32:57.298Z,15.18
2022-09-26T10:35:45.254Z,15.30
2022-09-26T10:38:27.379Z,15.31
2022-09-26T10:41:05.078Z,15.26
2022-09-26T10:43:40.445Z,15.38
2022-09-26T10:46:27.073Z,15.48
2022-09-26T10:49:40.861Z,15.64
2022-09-26T10:52:18.880Z,15.66
2022-09-26T10:54:58.976Z,15.99
2022-09-26T10:57:36.629Z,16.00
2022-09-26T11:00:07.682Z,16.06
2022-09-26T11:02:36.055Z,16.01
2022-09-26T11:05:24.303Z,15.83
2022-09-26T11:08:10.165Z,15.83
2022-09-26T11:11:04.078Z,15.99
2022-09-26T11:13:49.976Z,16.11
2022-09-26T11:16:20.094Z,16.29
2022-09-26T11:19:10.307Z,16.33
2022-09-26T11:21:55.909Z,16.33
2022-09-26T11:24:37.578Z,16.32
2022-09-26T11:27:27.223Z,16.28
2022-09-26T11:30:02.996Z,16.34
2022-09-26T11:32:40.925Z,16.44
2022-09-26T11:35:42.755Z,16.38
2022-09-26T11:38:44.186Z,16.53
2022-09-26T11:41:38.140Z,16.47
2022-09-26T11:44:37.021Z,16.51
2022-09-26T11:47:44.804Z,16.50
2022-09-26T11:50:43.447Z,16.47
2022-09-26T11:53:28.712Z,16.41
2022-09-26T11:56:10.407Z,16.35
2022-09-26T11:59:17.105Z,16.32
2022-09-26T12:01:55.109Z,16.28
2022-09-26T12:04:55.616Z,16.31
2022-09-26T12:07:37.441Z,16.31
2022-09-26T12:10:21.465Z,16.38
2022-09-26T12:13:20.066Z,16.47
2022-09-26T12:16:09.563Z,16.64
2022-09-26T12:19:16.499Z,16.73
2022-09-26T12:22:25.268Z,16.70
2022-09-26T12:24:51.789Z,16.73
2022-09-26T12:27:42.346Z,16.66
2022-09-26T12:30:14.014Z,16.69
2022-09-26T12:33:01.577Z,16.79
2022-09-26T12:35:29.617Z,16.96
2022-09-26T12:38:07.121Z,16.97
2022-09-26T12:40:56.389Z,17.08
2022-09-26T12:43:28.897Z,17.22
2022-09-26T12:46:21.528Z,17.18
2022-09-26T12:49:25.728Z,17.28
2022-09-26T12:51:55.676Z,17.38
2022-09-26T12:54:28.230Z,17.27
2022-09-26T12:57:04.998Z,17.46
2022-09-26T12:59:46.755Z,17.58
2022-09-26T13:02:13.319Z,17.50
2022-09-26T13:05:15.487Z,17.51
2022-09-26T13:07:47.174Z,17.62
2022-09-26T13:10:37.944Z,17.60
2022-09-26T13:13:33.208Z,17.80
2022-09-26T13:16:25.060Z,18.04
2022-09-26T13:19:00.163Z,17.97
2022-09-26T13:21:44.830Z,17.92
2022-09-26T13:24:21.560Z,17.83
2022-09-26T13:27:00.414Z,17.66
2022-09-26T13:29:33.720Z,17.48
2022-09-26T13:32:18.253Z,17.39
2022-09-26T13:35:04.040Z,17.40
2022-09-26T13:37:41.647Z,17.41
2022-09-26T13:40:33.991Z,17.46
2022-09-26T13:43:33.471Z,17.55
2022-09-26T13:46:16.142Z,17.44
2022-09-26T13:49:33.812Z,17.42
2022-09-26T13:52:06.224Z,17.50
2022-09-26T13:54:37.858Z,17.48
2022-09-26T13:57:31.734Z,17.39
2022-09-26T13:59:58.844Z,17.40
2022-09-26T14:02:29.180Z,17.41
2022-09-26T14:05:01.665Z,17.33
2022-09-26T14:07:55.899Z,17.31
2022-09-26T14:10:32.204Z,17.21
2022-09-26T14:13:08.275Z,17.15
2022-09-26T14:15:57.352Z,17.16
2022-09-26T14:18:52.168Z,17.21
2022-09-26T14:21:33.924Z,17.25
2022-09-26T14:24:37.198Z,17.22
2022-09-26T14:27:25.267Z,17.28
2022-09-26T14:29:59.287Z,17.30
2022-09-26T14:32:37.183Z,17.27
2022-09-26T14:35:38.591Z,17.35
2022-09-26T14:38:13.709Z,17.29
2022-09-26T14:40:54.425Z,17.24
2022-09-26T14:43:24.799Z,17.18
2022-09-26T14:46:02.504Z,17.20
2022-09-26T14:48:37.328Z,17.18
2022-09-26T14:51:16.038Z,17.21
2022-09-26T14:53:52.048Z,17.15
2022-09-26T14:56:41.847Z,16.97
2022-09-26T14:59:33.571Z,17.11
2022-09-26T15:02:19.179Z,17.14
2022-09-26T15:04:50.396Z,17.11
2022-09-26T15:07:25.960Z,17.11
2022-09-26T15:09:59.184Z,17.00
2022-09-26T15:12:37.271Z,17.04
2022-09-26T15:15:19.292Z,17.02
2022-09-26T15:17:50.427Z,16.97
2022-09-26T15:20:19.842Z,16.91
2022-09-26T15:22:48.314Z,16.96
2022-09-26T15:25:22.955Z,16.95
2022-09-26T15:27:54.073Z,16.90
2022-09-26T15:30:37.138Z,16.95
2022-09-26T15:33:04.673Z,16.90
2022-09-26T15:35:32.369Z,16.88
2022-09-26T15:38:10.058Z,16.85
2022-09-26T15:40:36.746Z,16.81
2022-09-26T15:43:11.433Z,16.81
2022-09-26T15:45:46.902Z,16.79
2022-09-26T15:48:19.691Z,16.80
2022-09-26T15:50:53.117Z,16.77
2022-09-26T15:53:28.910Z,16.75
2022-09-26T15:56:12.029Z,16.67
2022-09-26T15:58:47.521Z,16.62
2022-09-26T16:01:16.346Z,16.59
2022-09-26T16:03:45.706Z,16.55
2022-09-26T16:06:32.035Z,16.44
2022-09-26T16:09:07.852Z,16.45
2022-09-26T16:11:46.776Z,16.40
2022-09-26T16:14:34.101Z,16.38
2022-09-26T16:17:17.009Z,16.38
2022-09-26T16:19:50.057Z,16.28
2022-09-26T16:22:36.072Z,16.18
2022-09-26T16:25:19.291Z,16.11
2022-09-26T16:27:50.405Z,16.06
2022-09-26T16:30:32.070Z,15.93
2022-09-26T16:33:07.806Z,15.96
2022-09-26T16:35:37.437Z,15.92
2022-09-26T16:38:18.429Z,15.89
2022-09-26T16:40:52.622Z,15.80
2022-09-26T16:43:32.274Z,15.83
2022-09-26T16:46:17.696Z,15.82
2022-09-26T16:48:50.635Z,15.81
2022-09-26T16:51:19.405Z,15.83
2022-09-26T16:54:10.730Z,15.80
2022-09-26T16:56:41.965Z,15.72
2022-09-26T16:59:23.008Z,15.67
2022-09-26T17:01:53.783Z,15.65
2022-09-26T17:04:33.504Z,15.64
2022-09-26T17:07:08.874Z,15.67
2022-09-26T17:09:36.533Z,15.65
2022-09-26T17:12:13.613Z,15.62
2022-09-26T17:14:42.116Z,15.56
2022-09-26T17:17:16.294Z,15.55
2022-09-26T17:19:45.300Z,15.56
2022-09-26T17:22:15.262Z,15.49
2022-09-26T17:24:42.864Z,15.52
2022-09-26T17:27:19.505Z,15.49
2022-09-26T17:29:49.697Z,15.51
2022-09-26T17:32:32.331Z,15.42
2022-09-26T17:35:01.999Z,15.41
2022-09-26T17:37:29.018Z,15.46
2022-09-26T17:39:56.408Z,15.48
2022-09-26T17:42:23.586Z,15.49
2022-09-26T17:44:50.547Z,15.35
2022-09-26T17:47:18.745Z,15.39
2022-09-26T17:49:51.618Z,15.38
2022-09-26T17:52:25.814Z,15.45
2022-09-26T17:54:57.438Z,15.45
2022-09-26T17:57:30.318Z,15.47
2022-09-26T17:59:57.502Z,15.43
2022-09-26T18:02:31.882Z,15.45
2022-09-26T18:05:03.293Z,15.45
2022-09-26T18:07:39.598Z,15.44
2022-09-26T18:10:15.404Z,15.41
2022-09-26T18:12:42.190Z,15.35
2022-09-26T18:15:16.121Z,15.28
2022-09-26T18:17:43.656Z,15.30
2022-09-26T18:20:10.206Z,15.28
2022-09-26T18:22:36.858Z,15.19
2022-09-26T18:25:07.109Z,15.22
2022-09-26T18:27:40.522Z,15.19
2022-09-26T18:30:11.712Z,15.22
2022-09-26T18:32:40.741Z,15.19
2022-09-26T18:35:27.771Z,15.12
2022-09-26T18:37:56.136Z,15.10
2022-09-26T18:40:28.454Z,15.08
2022-09-26T18:42:57.781Z,15.13
2022-09-26T18:45:35.876Z,15.10
2022-09-26T18:48:08.120Z,15.05
2022-09-26T18:50:39.410Z,15.01
2022-09-26T18:53:20.972Z,15.04
2022-09-26T18:56:06.938Z,15.01
2022-09-26T18:58:34.382Z,15.07
2022-09-26T19:01:07.558Z,15.03
2022-09-26T19:03:37.848Z,15.04
2022-09-26T19:06:07.061Z,15.07
2022-09-26T19:08:37.477Z,15.07
2022-09-26T19:11:11.087Z,15.03
2022-09-26T19:13:37.713Z,15.07
2022-09-26T19:16:04.515Z,15.07
2022-09-26T19:18:31.357Z,15.08
2022-09-26T19:20:58.180Z,15.01
2022-09-26T19:23:32.401Z,14.92
2022-09-26T19:25:59.127Z,14.94
2022-09-26T19:28:30.192Z,14.95
2022-09-26T19:30:57.073Z,14.97
2022-09-26T19:33:24.161Z,14.94
2022-09-26T19:35:50.767Z,14.88
2022-09-26T19:38:22.053Z,14.86
2022-09-26T19:40:51.391Z,14.80
2022-09-26T19:43:18.294Z,14.75
2022-09-26T19:45:46.098Z,14.88
2022-09-26T19:48:17.408Z,14.83
2022-09-26T19:50:46.283Z,14.82
2022-09-26T19:53:16.020Z,14.79
2022-09-26T19:55:44.255Z,14.76
2022-09-26T19:58:10.993Z,14.77
2022-09-26T20:00:41.423Z,14.78
2022-09-26T20:03:15.872Z,14.76
2022-09-26T20:05:42.421Z,14.77
2022-09-26T20:08:15.899Z,14.77
2022-09-26T20:10:43.144Z,14.78
2022-09-26T20:13:09.668Z,14.79
2022-09-26T20:15:36.584Z,14.74
2022-09-26T20:18:03.474Z,14.75
2022-09-26T20:20:32.098Z,14.80
2022-09-26T20:22:59.241Z,14.74
2022-09-26T20:25:33.036Z,14.73
2022-09-26T20:28:00.272Z,14.61
2022-09-26T20:30:45.587Z,14.38
2022-09-26T20:33:13.429Z,14.47
2022-09-26T20:35:44.392Z,14.47
2022-09-26T20:38:18.134Z,14.49
2022-09-26T20:40:46.193Z,14.51
2022-09-26T20:43:20.858Z,14.51
2022-09-26T20:45:47.949Z,14.46
2022-09-26T20:48:26.773Z,14.44
2022-09-26T20:50:54.691Z,14.43
2022-09-26T20:53:24.191Z,14.43
2022-09-26T20:55:52.313Z,14.45
2022-09-26T20:58:19.088Z,14.44
2022-09-26T21:00:46.090Z,14.42
2022-09-26T21:03:15.600Z,14.33
2022-09-26T21:05:43.296Z,14.31
2022-09-26T21:08:33.902Z,14.26
2022-09-26T21:11:00.671Z,14.11
2022-09-26T21:13:27.240Z,14.02
2022-09-26T21:15:53.873Z,14.00
2022-09-26T21:18:24.742Z,13.84
2022-09-26T21:20:52.458Z,13.67
2022-09-26T21:23:43.287Z,13.68
2022-09-26T21:26:23.570Z,13.76
2022-09-26T21:28:51.315Z,13.83
2022-09-26T21:31:33.684Z,13.68
2022-09-26T21:34:00.881Z,13.63
2022-09-26T21:36:35.103Z,13.72
2022-09-26T21:39:02.385Z,13.65
2022-09-26T21:41:29.491Z,13.50
2022-09-26T21:44:03.212Z,13.55
2022-09-26T21:46:30.152Z,13.59
2022-09-26T21:48:56.835Z,13.72
2022-09-26T21:51:27.395Z,13.79
2022-09-26T21:54:06.227Z,13.85
2022-09-26T21:56:40.510Z,13.98
2022-09-26T21:59:07.857Z,14.01
2022-09-26T22:01:34.471Z,14.01
2022-09-26T22:04:01.256Z,14.06
2022-09-26T22:06:27.757Z,14.07
2022-09-26T22:08:54.539Z,14.05
2022-09-26T22:11:21.120Z,14.02
2022-09-26T22:13:47.716Z,14.05
2022-09-26T22:16:14.575Z,14.06
2022-09-26T22:18:41.670Z,14.05
2022-09-26T22:21:10.721Z,14.06
2022-09-26T22:23:38.444Z,14.03
2022-09-26T22:26:05.845Z,14.04
2022-09-26T22:28:32.809Z,13.98
2022-09-26T22:31:05.566Z,13.94
2022-09-26T22:33:33.088Z,13.89
2022-09-26T22:36:00.018Z,13.91
2022-09-26T22:38:26.664Z,13.75
2022-09-26T22:41:01.733Z,13.51
2022-09-26T22:43:28.486Z,13.19
2022-09-26T22:46:07.719Z,13.25
2022-09-26T22:48:36.152Z,13.36
2022-09-26T22:51:02.996Z,13.37
2022-09-26T22:53:31.926Z,13.44
2022-09-26T22:56:04.962Z,13.45
2022-09-26T22:58:42.945Z,13.51
2022-09-26T23:01:12.536Z,13.58
2022-09-26T23:03:40.817Z,13.57
2022-09-26T23:06:07.974Z,13.64
2022-09-26T23:08:35.486Z,13.70
2022-09-26T23:11:03.357Z,13.69
2022-09-26T23:13:31.698Z,13.74
2022-09-26T23:16:10.265Z,13.77
2022-09-26T23:18:39.277Z,13.83
2022-09-26T23:21:10.926Z,13.80
2022-09-26T23:23:39.018Z,13.87
2022-09-26T23:26:14.016Z,13.77
2022-09-26T23:28:40.610Z,13.67
2022-09-26T23:31:09.318Z,13.69
2022-09-26T23:33:37.063Z,13.70
2022-09-26T23:36:04.864Z,13.68
2022-09-26T23:38:31.857Z,13.75
2022-09-26T23:40:58.555Z,13.63
2022-09-26T23:43:25.231Z,13.75
2022-09-26T23:45:51.858Z,13.74
2022-09-26T23:48:18.541Z,13.78
2022-09-26T23:50:47.142Z,13.76
2022-09-26T23:53:14.914Z,13.74
2022-09-26T23:55:41.986Z,13.72
2022-09-26T23:58:08.703Z,13.77
